Terminal Aerodrome Forecast
Issued by NWS

Home | Current Version | Previous Version | Text Only | Print | Product List | Glossary On
Versions: 1 2 3 4 5 6 7 8 9 10 11 12 13
000
FTUS41 KCAR 042324
TAFFVE
TAF
KFVE 042324Z 0500/0524 21010G20KT P6SM SCT090
     FM050300 25010KT P6SM -SHRA OVC050
     FM050700 29010KT P6SM SCT050
     FM051200 30015G25KT P6SM FEW030 SCT250
     FM052000 30015G25KT P6SM BKN100=

USA.gov is the U.S. government's official web portal to all federal, state and local government web resources and services.